Terminal Aerodrome Forecast
Issued by NWS

Home | Current Version | Previous Version | Graphics & Text | Print | Product List | Glossary On
Versions: 1 2 3 4 5 6 7 8 9 10 11 12 13 14 15 16 17 18 19 20 21 22 23 24 25
000
FTUS43 KBIS 151737
TAFMOT
TAF
KMOT 151737Z 1518/1618 10006KT P6SM -SHRA BKN008 OVC080
     FM151900 11006KT 3SM -SHRA OVC005
     FM152200 12006KT 5SM BR VCSH BKN015 OVC035
     FM160000 11006KT P6SM OVC035
     FM160600 VRB03KT P6SM BKN008
     FM161500 32006KT P6SM FEW110=

USA.gov is the U.S. government's official web portal to all federal, state and local government web resources and services.